<?xml version='1.0' encoding='UTF-8'?>
<gpx xmlns="http://www.topografix.com/GPX/1/1" creator="www.balnam.be" version="1.1" xmlns:xsi="http://www.w3.org/2001/XMLSchema-instance" xsi:schemaLocation="http://www.topografix.com/GPX/1/1 http://www.topografix.com/GPX/1/1/gpx.xsd">
<trk>
<name>xnshs6</name>
<cmt>r</cmt>
<desc>Harsin Chemin n°6 Rue des Fagnes</desc>
<link href="https://chemins.be/harsin/chemin/6"/><trkseg>
<trkpt lat="50.182584" lon="5.376493"><time>2026-05-03T05:30:51Z</time></trkpt>
<trkpt lat="50.183628" lon="5.373364"><time>2026-05-03T05:40:51Z</time></trkpt>
</trkseg></trk>
<trk>
<name>xnshs6</name>
<cmt>v</cmt>
<desc>Harsin Chemin n°6 Rue des Fagnes</desc>
<link href="https://chemins.be/harsin/chemin/6"/><trkseg>
<trkpt lat="50.183628" lon="5.373364"><time>2026-05-03T05:40:51Z</time></trkpt>
<trkpt lat="50.184408" lon="5.373604"><time>2026-05-03T05:50:51Z</time></trkpt>
<trkpt lat="50.185261" lon="5.372684"><time>2026-05-03T06:00:51Z</time></trkpt>
</trkseg></trk>
<trk>
<name>xnshs6</name>
<cmt>s</cmt>
<desc>Harsin Chemin n°6 Rue des Fagnes</desc>
<link href="https://chemins.be/harsin/chemin/6"/><trkseg>
<trkpt lat="50.185261" lon="5.372684"><time>2026-05-03T06:00:51Z</time></trkpt>
<trkpt lat="50.185328" lon="5.372209"><time>2026-05-03T06:10:51Z</time></trkpt>
<trkpt lat="50.186439" lon="5.370608"><time>2026-05-03T06:20:51Z</time></trkpt>
<trkpt lat="50.187335" lon="5.368877"><time>2026-05-03T06:30:51Z</time></trkpt>
<trkpt lat="50.188184" lon="5.365267"><time>2026-05-03T06:40:51Z</time></trkpt>
</trkseg></trk>
<trk>
<name>xnshs6</name>
<cmt>r</cmt>
<desc>Harsin Chemin n°6 Rue des Fagnes</desc>
<link href="https://chemins.be/harsin/chemin/6"/><trkseg>
<trkpt lat="50.188184" lon="5.365267"><time>2026-05-03T06:40:51Z</time></trkpt>
<trkpt lat="50.188021" lon="5.363359"><time>2026-05-03T06:50:51Z</time></trkpt>
<trkpt lat="50.188138" lon="5.362311"><time>2026-05-03T07:00:51Z</time></trkpt>
</trkseg></trk>
<trk>
<name>xnshs6</name>
<cmt>v</cmt>
<desc>Harsin Chemin n°6 Rue des Fagnes</desc>
<link href="https://chemins.be/harsin/chemin/6"/><trkseg>
<trkpt lat="50.188138" lon="5.362311"><time>2026-05-03T07:00:51Z</time></trkpt>
<trkpt lat="50.188364" lon="5.357975"><time>2026-05-03T07:10:51Z</time></trkpt>
<trkpt lat="50.189433" lon="5.354527"><time>2026-05-03T07:20:51Z</time></trkpt>
<trkpt lat="50.189353" lon="5.354034"><time>2026-05-03T07:30:51Z</time></trkpt>
<trkpt lat="50.186558" lon="5.351439"><time>2026-05-03T07:40:51Z</time></trkpt>
<trkpt lat="50.184600" lon="5.349173"><time>2026-05-03T07:50:51Z</time></trkpt>
<trkpt lat="50.182742" lon="5.346600"><time>2026-05-03T08:00:51Z</time></trkpt>
<trkpt lat="50.183041" lon="5.346340"><time>2026-05-03T08:10:51Z</time></trkpt>
<trkpt lat="50.183276" lon="5.345182"><time>2026-05-03T08:20:51Z</time></trkpt>
<trkpt lat="50.183648" lon="5.344742"><time>2026-05-03T08:30:51Z</time></trkpt>
<trkpt lat="50.183633" lon="5.344364"><time>2026-05-03T08:40:51Z</time></trkpt>
<trkpt lat="50.183511" lon="5.343988"><time>2026-05-03T08:50:51Z</time></trkpt>
<trkpt lat="50.183260" lon="5.340946"><time>2026-05-03T09:00:51Z</time></trkpt>
<trkpt lat="50.182738" lon="5.337851"><time>2026-05-03T09:10:51Z</time></trkpt>
</trkseg>
</trk>
</gpx>